Terminal Aerodrome Forecast
Issued by NWS Albany, NY

Home | Current Version | Previous Version | Text Only | Print | Product List | Glossary On
Versions: 1 2 3 4 5 6 7 8 9 10 11 12 13
000
FTUS41 KALY 290200 AAA
TAFGFL
TAF AMD
KGFL 290234Z 2903/2924 24005KT P6SM BKN045
      TEMPO 2903/2906 27008G18KT
     FM290600 24005KT P6SM BKN040
     FM291600 32008KT P6SM SCT040 BKN250=

USA.gov is the U.S. government's official web portal to all federal, state and local government web resources and services.